Time;durP1;ratioP1;P1;durP2;ratioP2;P2;SDS_P1;SDS_P2;PMS_P1;PMS_P2;Temp;Humidity;BMP_temperature;BMP_pressure;BME280_temperature;BME280_humidity;BME280_pressure;Samples;Min_cycle;Max_cycle;Signal;HPM_P1;HPM_P2
2022/03/02 00:01:25;;;;;;;9.43;6.25;;;;;;;9.83;90.37;100943.91;5045507;28;20081;-77
2022/03/02 00:03:50;;;;;;;10.38;6.40;;;;;;;9.83;90.56;100949.47;5043380;28;20397;-77
2022/03/02 00:06:16;;;;;;;8.88;6.15;;;;;;;9.81;90.84;100941.44;5060222;28;20029;-76
2022/03/02 00:08:42;;;;;;;9.85;6.22;;;;;;;9.82;90.94;100943.09;5044773;28;20052;-77
2022/03/02 00:11:07;;;;;;;10.35;6.05;;;;;;;9.81;90.81;100944.22;5041689;28;20036;-77
2022/03/02 00:13:32;;;;;;;10.80;5.88;;;;;;;9.82;90.90;100945.03;5055622;28;20539;-76
2022/03/02 00:15:58;;;;;;;9.77;6.22;;;;;;;9.79;89.89;100937.28;5077234;28;20029;-77
2022/03/02 00:18:23;;;;;;;13.75;5.97;;;;;;;9.77;89.26;100934.75;5046502;28;20047;-77
2022/03/02 00:20:49;;;;;;;10.60;6.07;;;;;;;9.77;89.42;100936.72;5060331;28;20025;-76
2022/03/02 00:23:14;;;;;;;10.38;5.70;;;;;;;9.77;89.58;100929.22;5054877;28;20067;-77
2022/03/02 00:25:40;;;;;;;10.52;6.00;;;;;;;9.76;89.40;100935.88;5057377;28;20025;-76
2022/03/02 00:28:05;;;;;;;11.00;5.80;;;;;;;9.76;88.86;100926.75;5042139;28;20098;-76
2022/03/02 00:30:31;;;;;;;9.93;5.88;;;;;;;9.73;90.04;100922.59;5077148;28;20384;-76
2022/03/02 00:32:59;;;;;;;10.55;5.97;;;;;;;9.75;89.23;100922.28;5060466;28;20036;-76
2022/03/02 00:35:25;;;;;;;10.32;5.70;;;;;;;9.74;89.50;100923.41;5035082;28;20111;-76
2022/03/02 00:37:51;;;;;;;9.23;5.82;;;;;;;9.74;89.72;100923.41;5066081;28;20036;-76
2022/03/02 00:40:16;;;;;;;9.35;5.47;;;;;;;9.73;88.79;100916.22;5057615;28;20528;-76
2022/03/02 00:42:43;;;;;;;9.23;5.97;;;;;;;9.73;88.82;100917.03;5062930;28;20029;-76
2022/03/02 00:45:09;;;;;;;11.48;6.18;;;;;;;9.72;88.50;100920.94;5078657;28;20071;-77
2022/03/02 00:47:35;;;;;;;9.80;5.80;;;;;;;9.71;88.85;100921.19;5101090;27;20379;-76
2022/03/02 00:50:02;;;;;;;12.82;6.47;;;;;;;9.71;88.53;100912.88;5056780;28;20066;-76
2022/03/02 00:52:27;;;;;;;11.10;5.70;;;;;;;9.70;88.50;100911.22;5060035;28;20549;-76
2022/03/02 00:54:53;;;;;;;11.23;6.07;;;;;;;9.69;88.61;100912.31;5042200;28;20036;-77
2022/03/02 00:57:18;;;;;;;8.82;5.78;;;;;;;9.69;88.80;100913.13;5075372;28;20025;-75
2022/03/02 00:59:44;;;;;;;12.50;6.03;;;;;;;9.67;88.96;100908.97;5060082;28;20473;-76
2022/03/02 01:02:09;;;;;;;8.95;6.10;;;;;;;9.68;89.04;100899.56;5047571;28;20116;-76
2022/03/02 01:04:35;;;;;;;9.77;5.78;;;;;;;9.67;88.96;100907.06;5060727;28;20025;-76
2022/03/02 01:07:01;;;;;;;8.88;5.93;;;;;;;9.67;88.72;100904.28;5051974;28;20029;-76
2022/03/02 01:09:26;;;;;;;11.60;6.30;;;;;;;9.67;88.94;100895.97;5089532;28;20043;-76
2022/03/02 01:11:53;;;;;;;10.93;6.07;;;;;;;9.63;88.54;100889.28;5036228;28;20081;-76
2022/03/02 01:14:19;;;;;;;11.40;6.78;;;;;;;9.59;89.79;100902.91;5047612;28;20032;-77
2022/03/02 01:16:44;;;;;;;13.23;6.90;;;;;;;9.56;90.59;100895.13;5058788;28;20028;-76
2022/03/02 01:19:10;;;;;;;13.38;7.50;;;;;;;9.53;90.47;100890.16;5083553;28;20078;-77
2022/03/02 01:21:35;;;;;;;12.98;7.30;;;;;;;9.50;91.15;100893.47;5064613;28;20035;-76
2022/03/02 01:24:02;;;;;;;13.70;7.38;;;;;;;9.47;91.62;100887.63;5076774;28;20028;-76
2022/03/02 01:26:29;;;;;;;12.45;7.35;;;;;;;9.44;92.10;100894.56;5059150;28;20642;-76
2022/03/02 01:28:55;;;;;;;13.60;7.65;;;;;;;9.38;92.57;100888.19;5071490;28;20477;-76
2022/03/02 01:31:22;;;;;;;11.40;8.00;;;;;;;9.37;93.03;100880.16;5077020;28;20033;-76
2022/03/02 01:33:48;;;;;;;11.85;7.50;;;;;;;9.35;93.54;100882.38;5080307;28;20039;-76
2022/03/02 01:36:14;;;;;;;16.92;7.93;;;;;;;9.32;93.62;100880.16;5060775;28;20115;-76
2022/03/02 01:38:40;;;;;;;13.68;7.30;;;;;;;9.31;93.93;100875.72;5066165;28;20525;-76
2022/03/02 01:41:05;;;;;;;11.63;7.95;;;;;;;9.27;93.58;100872.66;5072140;28;20424;-76
2022/03/02 01:43:31;;;;;;;12.60;8.32;;;;;;;9.24;93.53;100870.44;5056565;28;20063;-76
2022/03/02 01:45:56;;;;;;;14.25;7.85;;;;;;;9.27;93.21;100863.53;5060150;28;20029;-76
2022/03/02 01:48:22;;;;;;;12.25;8.05;;;;;;;9.28;92.48;100866.03;5062810;28;20029;-76
2022/03/02 01:50:47;;;;;;;14.68;7.63;;;;;;;9.27;91.96;100861.56;5070675;28;20394;-76
2022/03/02 01:53:13;;;;;;;14.63;8.32;;;;;;;9.29;91.76;100864.09;5037168;28;20039;-76
2022/03/02 01:55:38;;;;;;;11.88;7.30;;;;;;;9.27;91.15;100858.81;5044370;28;20044;-76
2022/03/02 01:58:04;;;;;;;14.75;8.13;;;;;;;9.27;91.21;100857.97;5070144;28;20025;-76
2022/03/02 02:00:29;;;;;;;13.10;7.45;;;;;;;9.27;90.48;100853.25;5063594;28;20551;-77
2022/03/02 02:02:55;;;;;;;12.55;7.20;;;;;;;9.29;90.60;100855.78;5045446;28;20033;-77
2022/03/02 02:05:20;;;;;;;12.63;7.93;;;;;;;9.28;90.58;100857.72;5062768;28;20550;-77
2022/03/02 02:07:46;;;;;;;11.30;7.13;;;;;;;9.29;90.86;100861.31;5065121;28;20597;-76
2022/03/02 02:10:11;;;;;;;13.48;7.18;;;;;;;9.31;90.41;100861.88;5073253;28;20028;-76
2022/03/02 02:12:37;;;;;;;10.63;6.07;;;;;;;9.31;90.97;100854.38;5040946;28;20040;-76
2022/03/02 02:15:03;;;;;;;12.52;7.45;;;;;;;9.31;91.90;100859.09;5088400;28;20020;-76
2022/03/02 02:17:29;;;;;;;12.85;7.32;;;;;;;9.30;91.74;100851.88;5064747;28;20518;-77
2022/03/02 02:19:54;;;;;;;11.57;6.68;;;;;;;9.30;92.23;100858.25;5066376;28;20059;-76
2022/03/02 02:22:20;;;;;;;12.52;7.03;;;;;;;9.30;92.08;100849.09;5063227;28;20031;-76
2022/03/02 02:24:45;;;;;;;11.27;6.93;;;;;;;9.31;92.12;100856.34;5063380;28;20062;-77
2022/03/02 02:27:11;;;;;;;11.88;6.40;;;;;;;9.31;92.13;100854.38;5070281;28;20112;-77
2022/03/02 02:29:37;;;;;;;13.07;6.93;;;;;;;9.32;92.17;100849.66;5079012;28;20028;-76
2022/03/02 02:32:03;;;;;;;13.52;7.20;;;;;;;9.31;92.72;100843.31;5061485;28;20024;-76
2022/03/02 02:34:29;;;;;;;12.80;6.63;;;;;;;9.31;92.84;100843.31;5061122;28;20454;-76
2022/03/02 02:36:54;;;;;;;11.52;6.85;;;;;;;9.29;92.77;100837.19;5067169;28;20081;-76
2022/03/02 02:39:20;;;;;;;11.13;6.68;;;;;;;9.30;93.21;100829.72;5075272;28;20484;-76
2022/03/02 02:41:45;;;;;;;14.82;7.30;;;;;;;9.26;93.22;100837.75;5068239;28;20043;-77
2022/03/02 02:44:11;;;;;;;12.15;6.50;;;;;;;9.26;93.55;100831.38;5063132;28;20036;-76
2022/03/02 02:46:41;;;;;;;10.27;6.07;;;;;;;9.26;93.66;100825.84;5075478;28;20440;-76
2022/03/02 02:49:06;;;;;;;13.00;6.78;;;;;;;9.25;93.61;100830.56;5072208;28;20028;-76
2022/03/02 02:51:32;;;;;;;10.85;6.57;;;;;;;9.26;93.58;100825.84;5051138;28;20043;-76
2022/03/02 02:53:58;;;;;;;13.48;8.35;;;;;;;9.26;93.44;100817.53;5067487;28;20031;-76
2022/03/02 02:56:24;;;;;;;10.63;7.25;;;;;;;9.23;93.39;100827.22;5063286;28;20043;-76
2022/03/02 02:58:49;;;;;;;13.60;8.15;;;;;;;9.22;93.63;100816.41;5078843;28;20058;-76
2022/03/02 03:01:15;;;;;;;13.75;7.93;;;;;;;9.18;93.78;100819.72;5045697;28;20624;-76
2022/03/02 03:03:40;;;;;;;11.07;8.07;;;;;;;9.17;93.83;100804.22;5060899;28;20028;-77
2022/03/02 03:06:06;;;;;;;14.27;8.05;;;;;;;9.17;93.94;100812.53;5063691;28;20040;-76
2022/03/02 03:08:31;;;;;;;14.45;8.43;;;;;;;9.16;94.08;100808.13;5077371;28;20048;-76
2022/03/02 03:10:57;;;;;;;10.70;7.65;;;;;;;9.15;94.15;100800.91;5056778;28;20035;-77
2022/03/02 03:13:23;;;;;;;13.07;8.25;;;;;;;9.08;94.44;100796.72;5058462;28;20040;-76
2022/03/02 03:15:49;;;;;;;11.52;7.97;;;;;;;9.07;94.32;100793.13;5075141;28;20031;-76
2022/03/02 03:18:14;;;;;;;20.70;11.13;;;;;;;8.96;94.86;100794.25;5045115;28;20029;-77
2022/03/02 03:20:40;;;;;;;14.90;10.52;;;;;;;8.89;94.53;100786.22;5060652;28;20425;-77
2022/03/02 03:23:06;;;;;;;16.42;9.85;;;;;;;8.88;94.58;100783.72;5060738;28;20034;-76
2022/03/02 03:25:32;;;;;;;17.95;11.00;;;;;;;8.79;94.34;100785.38;5056290;28;20058;-77
2022/03/02 03:27:57;;;;;;;20.08;12.25;;;;;;;8.78;94.22;100784.56;5059207;28;20051;-76
2022/03/02 03:30:23;;;;;;;22.30;11.95;;;;;;;8.80;94.09;100781.47;5055777;28;20028;-76
2022/03/02 03:32:49;;;;;;;20.23;12.45;;;;;;;8.78;93.85;100772.66;5058788;28;20028;-77
2022/03/02 03:35:16;;;;;;;23.75;12.02;;;;;;;8.76;94.11;100780.38;5057980;28;20027;-76
2022/03/02 03:37:41;;;;;;;20.67;12.20;;;;;;;8.71;93.94;100768.19;5039273;28;20374;-76
2022/03/02 03:40:08;;;;;;;19.05;12.00;;;;;;;8.71;93.56;100767.34;5056888;28;20024;-76
2022/03/02 03:42:33;;;;;;;18.77;12.40;;;;;;;8.71;94.38;100767.34;5055157;28;20025;-76
2022/03/02 03:44:59;;;;;;;21.33;13.07;;;;;;;8.69;94.33;100759.34;5058258;28;20033;-76
2022/03/02 03:47:24;;;;;;;22.50;12.82;;;;;;;8.72;94.36;100757.97;5050756;28;20061;-76
2022/03/02 03:49:49;;;;;;;19.42;12.80;;;;;;;8.68;94.23;100754.91;5037584;28;20024;-76
2022/03/02 03:52:15;;;;;;;20.38;12.43;;;;;;;8.69;93.82;100756.56;5056098;28;20055;-77
2022/03/02 03:54:40;;;;;;;19.80;12.25;;;;;;;8.70;93.80;100747.16;5057868;28;20054;-76
2022/03/02 03:57:06;;;;;;;18.42;12.35;;;;;;;8.72;93.47;100747.72;5060067;28;20036;-77
2022/03/02 03:59:32;;;;;;;26.63;13.02;;;;;;;8.70;93.66;100752.69;5058124;28;20024;-76
2022/03/02 04:01:57;;;;;;;24.60;13.10;;;;;;;8.73;93.14;100754.06;5040885;28;20091;-76
2022/03/02 04:04:23;;;;;;;21.48;13.18;;;;;;;8.71;92.34;100751.56;5075679;28;20032;-76
2022/03/02 04:06:48;;;;;;;20.75;12.98;;;;;;;8.68;92.58;100746.59;5058996;28;20039;-76
2022/03/02 04:09:14;;;;;;;22.55;13.95;;;;;;;8.70;92.66;100743.56;5062376;28;20097;-76
2022/03/02 04:11:39;;;;;;;19.00;12.50;;;;;;;8.70;92.40;100732.47;5085144;28;20495;-77
2022/03/02 04:14:04;;;;;;;21.20;12.85;;;;;;;8.70;92.20;100738.00;5077563;28;20027;-76
2022/03/02 04:16:30;;;;;;;20.27;13.50;;;;;;;8.70;92.01;100744.38;5059150;28;20078;-76
2022/03/02 04:18:56;;;;;;;21.45;13.27;;;;;;;8.69;91.77;100737.19;5057393;28;20024;-76
2022/03/02 04:21:21;;;;;;;19.98;13.45;;;;;;;8.69;91.20;100742.72;5076783;28;20032;-76
2022/03/02 04:23:47;;;;;;;23.60;13.60;;;;;;;8.69;91.50;100736.34;5062633;28;20396;-76
2022/03/02 04:26:12;;;;;;;24.65;13.45;;;;;;;8.68;91.21;100734.69;5076513;28;20083;-76
2022/03/02 04:28:38;;;;;;;20.65;13.18;;;;;;;8.70;91.72;100727.78;5059143;28;20020;-76
2022/03/02 04:31:03;;;;;;;21.38;13.30;;;;;;;8.68;90.61;100729.97;5086708;28;20032;-76
2022/03/02 04:33:29;;;;;;;23.55;13.88;;;;;;;8.67;90.51;100733.84;5059524;28;20032;-76
2022/03/02 04:35:54;;;;;;;19.30;13.13;;;;;;;8.66;90.14;100723.03;5032265;28;20041;-76
2022/03/02 04:38:20;;;;;;;23.25;13.73;;;;;;;8.64;90.27;100728.06;5052537;28;20028;-76
2022/03/02 04:40:45;;;;;;;22.45;13.55;;;;;;;8.65;89.99;100725.00;5043299;28;20048;-76
2022/03/02 04:43:11;;;;;;;25.25;13.93;;;;;;;8.68;90.11;100724.44;5060476;28;20054;-76
2022/03/02 04:45:37;;;;;;;27.40;12.93;;;;;;;8.64;89.94;100717.81;5083739;28;20032;-76
2022/03/02 04:48:03;;;;;;;20.25;13.25;;;;;;;8.63;89.70;100716.13;5060242;28;20522;-77
2022/03/02 04:50:29;;;;;;;21.45;13.27;;;;;;;8.65;89.45;100713.91;5061408;28;20111;-76
2022/03/02 04:52:55;;;;;;;24.13;13.75;;;;;;;8.66;88.82;100711.97;5042493;28;20522;-76
2022/03/02 04:55:20;;;;;;;20.48;12.82;;;;;;;8.65;88.84;100713.09;5057938;28;20060;-76
2022/03/02 04:57:54;;;;;;;28.55;13.90;;;;;;;8.62;88.55;100710.88;5056073;28;20032;-77
2022/03/02 05:00:21;;;;;;;24.42;13.40;;;;;;;8.62;89.40;100703.41;5066310;28;20028;-76
2022/03/02 05:02:47;;;;;;;26.13;14.07;;;;;;;8.62;88.66;100699.81;5082610;28;20039;-76
2022/03/02 05:05:14;;;;;;;24.08;14.73;;;;;;;8.60;88.67;100704.78;5094696;28;20031;-76
2022/03/02 05:07:40;;;;;;;23.05;13.73;;;;;;;8.60;88.55;100704.78;5060572;28;20097;-76
2022/03/02 05:10:06;;;;;;;26.05;14.27;;;;;;;8.59;89.14;100706.72;5061097;28;20027;-76
2022/03/02 05:12:32;;;;;;;23.90;14.38;;;;;;;8.58;88.77;100707.84;5077764;28;20085;-76
2022/03/02 05:14:57;;;;;;;24.58;13.18;;;;;;;8.57;88.78;100711.69;5045456;28;20024;-76
2022/03/02 05:17:23;;;;;;;23.40;13.77;;;;;;;8.59;89.14;100715.03;5063647;28;20050;-76
2022/03/02 05:19:49;;;;;;;21.30;13.65;;;;;;;8.61;89.02;100720.28;5028437;28;20086;-76
2022/03/02 05:22:14;;;;;;;23.00;13.80;;;;;;;8.60;88.72;100727.75;5080720;28;20024;-76
2022/03/02 05:24:40;;;;;;;24.98;13.90;;;;;;;8.60;88.51;100724.97;5060669;28;20044;-75
2022/03/02 05:27:06;;;;;;;24.00;13.52;;;;;;;8.58;89.05;100718.91;5084478;28;20051;-75
2022/03/02 05:29:31;;;;;;;20.77;13.48;;;;;;;8.59;88.43;100715.03;5090862;28;20050;-76
2022/03/02 05:31:57;;;;;;;24.35;14.02;;;;;;;8.59;88.27;100720.56;5052589;28;20028;-75
2022/03/02 05:34:22;;;;;;;24.05;14.35;;;;;;;8.59;88.19;100717.78;5050170;28;20024;-75
2022/03/02 05:36:48;;;;;;;20.98;12.88;;;;;;;8.59;88.51;100717.78;5054545;28;20024;-76
2022/03/02 05:39:13;;;;;;;25.88;13.50;;;;;;;8.59;88.52;100720.56;5075966;28;20024;-76
2022/03/02 05:41:39;;;;;;;21.95;13.20;;;;;;;8.60;88.26;100721.38;5064735;28;20650;-76
2022/03/02 05:44:05;;;;;;;23.92;13.70;;;;;;;8.58;87.59;100721.69;5061210;28;20462;-76
2022/03/02 05:46:31;;;;;;;21.50;13.40;;;;;;;8.57;86.99;100714.47;5080926;28;20043;-75
2022/03/02 05:48:57;;;;;;;20.60;13.82;;;;;;;8.56;87.39;100718.34;5048154;28;20023;-76
2022/03/02 05:51:22;;;;;;;24.35;13.05;;;;;;;8.57;87.68;100717.22;5080484;28;20085;-76
2022/03/02 05:53:48;;;;;;;20.90;12.38;;;;;;;8.55;88.14;100719.44;5067274;28;20090;-76
2022/03/02 05:56:13;;;;;;;22.58;13.55;;;;;;;8.53;87.43;100718.91;5078932;28;20400;-75
2022/03/02 05:58:38;;;;;;;22.65;13.13;;;;;;;8.53;87.23;100710.59;5063646;28;20036;-76
2022/03/02 06:01:04;;;;;;;24.90;13.07;;;;;;;8.50;87.94;100706.44;5078576;28;20039;-76
2022/03/02 06:03:31;;;;;;;24.27;13.55;;;;;;;8.49;87.72;100699.22;5077801;28;20125;-76
2022/03/02 06:05:57;;;;;;;22.55;13.98;;;;;;;8.47;86.56;100707.00;5060404;28;20089;-76
2022/03/02 06:08:22;;;;;;;23.85;13.48;;;;;;;8.46;87.05;100713.63;5044417;28;20044;-75
2022/03/02 06:10:48;;;;;;;20.85;12.68;;;;;;;8.45;87.64;100709.19;5061504;28;20037;-76
2022/03/02 06:13:14;;;;;;;21.65;13.80;;;;;;;8.45;87.33;100720.28;5074970;28;20042;-76
2022/03/02 06:15:40;;;;;;;23.42;14.18;;;;;;;8.42;87.19;100714.47;5042357;28;20032;-76
2022/03/02 06:18:06;;;;;;;23.10;12.77;;;;;;;8.43;87.54;100716.13;5059844;28;20063;-76
2022/03/02 06:20:32;;;;;;;23.63;13.50;;;;;;;8.41;87.64;100712.78;5055193;28;20052;-76
2022/03/02 06:22:58;;;;;;;21.20;12.75;;;;;;;8.41;87.64;100712.78;5059676;28;20051;-76
2022/03/02 06:25:24;;;;;;;23.02;12.52;;;;;;;8.39;86.90;100712.25;5038658;28;20060;-76
2022/03/02 06:27:49;;;;;;;22.58;13.73;;;;;;;8.36;86.60;100713.59;5060669;28;20040;-76
2022/03/02 06:30:15;;;;;;;25.70;13.65;;;;;;;8.32;86.35;100714.41;5057540;28;20024;-76
2022/03/02 06:32:40;;;;;;;22.17;13.32;;;;;;;8.25;87.68;100709.16;5042629;28;20035;-76
2022/03/02 06:35:06;;;;;;;21.90;13.25;;;;;;;8.25;86.86;100715.50;5056731;28;20479;-76
2022/03/02 06:37:33;;;;;;;24.80;14.07;;;;;;;8.23;87.62;100716.88;5060069;28;20024;-76
2022/03/02 06:40:06;;;;;;;23.15;13.90;;;;;;;8.20;88.05;100717.44;5057369;28;20431;-76
2022/03/02 06:43:06;;;;;;;21.90;13.32;;;;;;;8.17;87.63;100718.81;5063067;28;20025;-76
2022/03/02 06:45:53;;;;;;;26.42;14.07;;;;;;;8.15;88.64;100723.78;5077444;28;20068;-76
2022/03/02 06:48:25;;;;;;;21.08;13.57;;;;;;;8.11;88.03;100714.38;5075704;28;20074;-76
2022/03/02 06:50:52;;;;;;;23.33;12.65;;;;;;;8.11;88.53;100725.44;5058405;28;20079;-76
2022/03/02 06:53:19;;;;;;;21.98;12.13;;;;;;;8.14;88.23;100726.81;5044684;28;20477;-76
2022/03/02 06:55:44;;;;;;;24.13;12.75;;;;;;;8.11;87.31;100719.03;5045636;28;20036;-76
2022/03/02 06:58:11;;;;;;;23.55;14.02;;;;;;;8.06;87.62;100725.41;5026818;28;20033;-76
2022/03/02 07:00:37;;;;;;;26.95;13.65;;;;;;;8.04;88.01;100720.13;5043637;28;20111;-76
2022/03/02 07:03:09;;;;;;;22.08;12.70;;;;;;;8.04;86.44;100730.38;5058183;28;20555;-76
2022/03/02 07:05:37;;;;;;;24.13;13.82;;;;;;;8.01;87.24;100726.22;5064397;28;20090;-76
2022/03/02 07:08:03;;;;;;;23.15;13.18;;;;;;;8.00;87.19;100732.03;5078417;28;20131;-76
2022/03/02 07:10:36;;;;;;;23.55;13.65;;;;;;;7.98;88.07;100732.31;5078193;28;20036;-76
2022/03/02 07:13:06;;;;;;;23.27;14.45;;;;;;;8.00;88.39;100740.34;5078024;28;20028;-76
2022/03/02 07:15:32;;;;;;;28.67;14.98;;;;;;;7.98;87.58;100735.06;5055164;28;20481;-75
2022/03/02 07:18:02;;;;;;;24.55;14.93;;;;;;;7.96;87.46;100728.13;5030924;28;20037;-72
2022/03/02 07:20:28;;;;;;;24.50;14.90;;;;;;;7.93;87.86;100735.03;5075124;28;20046;-73
2022/03/02 07:22:54;;;;;;;27.98;14.35;;;;;;;7.95;87.50;100741.13;5040413;28;20092;-72
2022/03/02 07:25:30;;;;;;;22.98;13.82;;;;;;;7.96;87.95;100733.66;5057248;28;20500;-72
2022/03/02 07:27:56;;;;;;;24.48;14.40;;;;;;;7.97;87.62;100727.88;5057085;28;20089;-73
2022/03/02 07:30:22;;;;;;;27.92;15.40;;;;;;;8.00;87.71;100729.28;5060619;28;20028;-73
2022/03/02 07:32:47;;;;;;;28.45;15.45;;;;;;;8.01;87.88;100730.94;5040742;28;20024;-75
2022/03/02 07:35:15;;;;;;;26.50;14.30;;;;;;;8.04;88.09;100735.91;5060211;28;20464;-74
2022/03/02 07:37:40;;;;;;;26.85;14.52;;;;;;;8.04;88.57;100739.50;5106352;28;20409;-73
2022/03/02 07:40:06;;;;;;;23.55;13.95;;;;;;;8.09;88.28;100755.28;5057618;28;20029;-73
2022/03/02 07:42:32;;;;;;;24.15;13.35;;;;;;;8.12;88.41;100748.41;5058314;28;20109;-73
2022/03/02 07:44:58;;;;;;;23.15;14.00;;;;;;;8.12;88.52;100751.16;5041231;28;20112;-73
2022/03/02 07:47:24;;;;;;;21.70;13.73;;;;;;;8.15;87.33;100740.38;5044244;28;20032;-73
2022/03/02 07:49:50;;;;;;;23.10;13.57;;;;;;;8.18;87.01;100748.13;5074035;28;20033;-73
2022/03/02 07:52:16;;;;;;;20.48;13.07;;;;;;;8.18;86.86;100745.34;5075219;28;20077;-73
2022/03/02 07:54:41;;;;;;;22.02;12.55;;;;;;;8.19;85.81;100748.94;5056852;28;20028;-73
2022/03/02 07:57:09;;;;;;;21.08;12.82;;;;;;;8.21;86.66;100753.09;5018043;28;20059;-75
2022/03/02 07:59:36;;;;;;;23.67;13.02;;;;;;;8.21;86.12;100743.97;5051574;28;20036;-74
2022/03/02 08:02:07;;;;;;;21.77;12.93;;;;;;;8.22;86.09;100753.97;5063443;28;20517;-75
2022/03/02 08:04:33;;;;;;;24.13;13.43;;;;;;;8.21;85.86;100747.56;5042492;28;20032;-74
2022/03/02 08:06:58;;;;;;;20.95;12.68;;;;;;;8.23;86.43;100755.63;5049889;28;20041;-75
2022/03/02 08:09:24;;;;;;;23.40;13.15;;;;;;;8.26;85.68;100758.66;5039263;28;20149;-75
2022/03/02 08:11:49;;;;;;;20.30;12.15;;;;;;;8.27;85.55;100760.34;5038931;28;20075;-74
2022/03/02 08:14:18;;;;;;;22.67;12.75;;;;;;;8.29;85.08;100763.66;5021941;28;20036;-73
2022/03/02 08:16:45;;;;;;;22.88;12.63;;;;;;;8.33;85.80;100757.56;5033013;28;20033;-73
2022/03/02 08:19:11;;;;;;;21.25;12.45;;;;;;;8.37;85.26;100759.53;5016850;28;20033;-73
2022/03/02 08:21:36;;;;;;;19.83;12.40;;;;;;;8.42;84.21;100758.75;5050724;28;20083;-73
2022/03/02 08:24:03;;;;;;;21.38;12.55;;;;;;;8.45;85.00;100758.19;5033022;28;20028;-73
2022/03/02 08:26:32;;;;;;;20.60;12.25;;;;;;;8.50;84.46;100761.81;5044038;28;20111;-73
2022/03/02 08:28:58;;;;;;;22.95;12.85;;;;;;;8.57;83.66;100761.53;5048279;28;20036;-75
2022/03/02 08:31:24;;;;;;;22.58;12.38;;;;;;;8.62;84.35;100760.72;5031063;28;20064;-74
2022/03/02 08:33:50;;;;;;;18.55;11.77;;;;;;;8.67;84.16;100767.09;5051975;28;20440;-73
2022/03/02 08:36:15;;;;;;;20.63;11.27;;;;;;;8.73;83.62;100765.16;5074514;28;20025;-73
2022/03/02 08:38:42;;;;;;;19.42;12.65;;;;;;;8.81;82.83;100761.00;5058122;28;20063;-73
2022/03/02 08:41:10;;;;;;;22.90;12.30;;;;;;;8.88;82.20;100764.31;5023576;28;20048;-74
2022/03/02 08:43:35;;;;;;;21.33;12.68;;;;;;;8.95;81.81;100767.66;5039756;28;20173;-74
2022/03/02 08:46:01;;;;;;;18.88;11.32;;;;;;;9.01;81.74;100761.00;5040680;28;20416;-73
2022/03/02 08:48:27;;;;;;;21.48;11.73;;;;;;;9.07;81.98;100765.44;5058345;28;20032;-73
2022/03/02 08:50:54;;;;;;;20.60;11.48;;;;;;;9.13;81.03;100750.44;5077671;28;20652;-73
2022/03/02 08:53:20;;;;;;;22.58;12.38;;;;;;;9.22;79.96;100758.22;5084480;28;20032;-73
2022/03/02 08:55:46;;;;;;;20.20;12.13;;;;;;;9.27;79.47;100759.03;5064177;28;20436;-73
2022/03/02 08:58:11;;;;;;;23.35;11.82;;;;;;;9.34;78.83;100767.91;5037708;28;20037;-74
2022/03/02 09:00:37;;;;;;;22.67;12.75;;;;;;;9.43;78.78;100762.63;5054682;28;20079;-73
2022/03/02 09:03:03;;;;;;;24.48;12.52;;;;;;;9.50;78.46;100756.78;5042080;28;20028;-74
2022/03/02 09:05:29;;;;;;;22.65;12.65;;;;;;;9.57;78.34;100762.88;5059425;28;20038;-74
2022/03/02 09:07:55;;;;;;;24.15;12.48;;;;;;;9.63;78.29;100761.72;5042755;28;20032;-74
2022/03/02 09:10:21;;;;;;;22.23;12.52;;;;;;;9.73;77.39;100758.94;5052788;28;20357;-74
2022/03/02 09:12:46;;;;;;;23.05;12.90;;;;;;;9.77;77.60;100767.50;5079225;28;20127;-73
2022/03/02 09:15:12;;;;;;;20.75;12.48;;;;;;;9.84;77.59;100760.56;5059554;28;20029;-74
2022/03/02 09:17:38;;;;;;;20.65;12.10;;;;;;;9.90;77.43;100760.56;5055461;28;20031;-74
2022/03/02 09:20:04;;;;;;;18.50;11.65;;;;;;;9.97;78.00;100756.38;5072001;28;20085;-73
2022/03/02 09:22:29;;;;;;;20.52;12.57;;;;;;;10.03;77.96;100759.94;5067656;28;20041;-74
2022/03/02 09:24:56;;;;;;;22.70;12.15;;;;;;;10.07;77.58;100761.84;5065484;28;20035;-74
2022/03/02 09:27:21;;;;;;;19.33;12.35;;;;;;;10.14;78.38;100760.69;5077051;28;20020;-74
2022/03/02 09:29:47;;;;;;;20.17;11.88;;;;;;;10.19;77.55;100763.47;5052988;28;20066;-73
2022/03/02 09:32:14;;;;;;;22.20;12.65;;;;;;;10.21;77.06;100756.50;5054539;28;20032;-73
2022/03/02 09:34:42;;;;;;;21.80;12.18;;;;;;;10.29;76.63;100752.34;5039525;28;20028;-74
2022/03/02 09:37:09;;;;;;;23.80;11.95;;;;;;;10.36;77.36;100757.56;5063299;28;20147;-70
2022/03/02 09:39:35;;;;;;;21.80;12.15;;;;;;;10.42;77.60;100757.28;5054769;28;20060;-75
2022/03/02 09:42:05;;;;;;;22.30;11.80;;;;;;;10.47;78.29;100756.38;5054262;28;20483;-75
2022/03/02 09:44:34;;;;;;;21.52;11.95;;;;;;;10.56;77.49;100753.81;5063673;28;20545;-75
2022/03/02 09:47:00;;;;;;;20.67;10.80;;;;;;;10.66;77.39;100745.44;5051460;28;20470;-75
2022/03/02 09:49:29;;;;;;;20.40;11.65;;;;;;;10.73;78.17;100745.94;5063175;28;20111;-75
2022/03/02 09:52:08;;;;;;;20.77;11.10;;;;;;;10.84;77.36;100749.47;5068388;28;20589;-75
2022/03/02 09:54:38;;;;;;;18.27;10.93;;;;;;;10.96;76.77;100752.69;5042395;28;20019;-75
2022/03/02 09:57:07;;;;;;;20.65;11.10;;;;;;;11.05;77.34;100750.94;5047763;28;20178;-75
2022/03/02 09:59:35;;;;;;;22.98;11.52;;;;;;;11.17;77.26;100751.41;5061540;28;20080;-75
2022/03/02 10:02:07;;;;;;;16.38;10.50;;;;;;;11.33;76.19;100754.03;5062635;28;20468;-74
2022/03/02 10:04:33;;;;;;;22.77;11.88;;;;;;;11.46;76.06;100753.34;5066018;28;20051;-75
2022/03/02 10:07:26;;;;;;;22.40;11.90;;;;;;;11.58;75.60;100756.53;5065036;28;20044;-75
2022/03/02 10:09:48;;;;;;;19.92;11.85;;;;;;;11.72;75.57;100753.88;5042407;28;20040;-69
2022/03/02 10:12:19;;;;;;;20.75;11.93;;;;;;;11.83;74.71;100760.16;5057200;28;20048;-74
2022/03/02 10:14:44;;;;;;;21.33;11.80;;;;;;;11.93;75.29;100754.50;5039705;28;20040;-74
2022/03/02 10:17:20;;;;;;;20.23;11.48;;;;;;;12.02;74.47;100758.28;5040844;28;20037;-74
2022/03/02 10:19:54;;;;;;;17.05;11.07;;;;;;;12.10;75.30;100751.25;5059507;28;20549;-74
2022/03/02 10:22:39;;;;;;;20.42;11.38;;;;;;;12.21;73.84;100752.75;5042225;28;20037;-73
2022/03/02 10:25:07;;;;;;;19.45;11.10;;;;;;;12.25;73.09;100750.19;5056421;28;20127;-73
2022/03/02 10:27:49;;;;;;;23.25;12.07;;;;;;;12.34;73.59;100755.91;5042888;28;20025;-74
2022/03/02 10:30:16;;;;;;;18.98;11.32;;;;;;;12.41;73.37;100751.63;5057015;28;20032;-73
2022/03/02 10:32:42;;;;;;;18.00;11.63;;;;;;;12.48;73.67;100751.25;5040903;28;20029;-74
2022/03/02 10:35:09;;;;;;;19.77;10.73;;;;;;;12.54;73.67;100747.28;5035250;28;20647;-73
2022/03/02 10:37:38;;;;;;;19.80;11.43;;;;;;;12.59;73.11;100746.38;5057905;28;20036;-73
2022/03/02 10:40:17;;;;;;;22.85;12.27;;;;;;;12.66;73.32;100752.41;5057805;28;20028;-73
2022/03/02 10:42:44;;;;;;;16.27;11.35;;;;;;;12.71;73.22;100743.97;5042152;28;20060;-73
2022/03/02 10:45:17;;;;;;;21.02;11.90;;;;;;;12.74;72.01;100733.03;5057432;28;20105;-73
2022/03/02 10:47:47;;;;;;;23.95;12.13;;;;;;;12.78;72.19;100743.56;5043226;28;20045;-74
2022/03/02 10:50:13;;;;;;;20.50;11.60;;;;;;;12.84;72.15;100736.78;5021213;28;20043;-74
2022/03/02 10:52:39;;;;;;;23.52;11.40;;;;;;;12.86;73.58;100726.97;5036676;28;20048;-74
2022/03/02 10:55:07;;;;;;;21.50;12.15;;;;;;;12.93;74.57;100730.22;5021482;28;20048;-74
2022/03/02 10:57:33;;;;;;;22.60;11.30;;;;;;;12.99;75.07;100728.16;5044068;28;20116;-74
2022/03/02 11:00:06;;;;;;;25.27;11.85;;;;;;;13.08;75.79;100723.53;5035448;28;20032;-74
2022/03/02 11:02:31;;;;;;;23.50;11.90;;;;;;;13.16;74.80;100728.41;5027087;28;20028;-74
2022/03/02 11:04:57;;;;;;;20.35;11.32;;;;;;;13.27;75.82;100717.94;5026051;28;20033;-74
2022/03/02 11:07:23;;;;;;;22.08;11.93;;;;;;;13.40;75.20;100721.91;5038685;28;20029;-74
2022/03/02 11:09:50;;;;;;;21.00;12.80;;;;;;;13.50;73.39;100710.53;5071485;28;20473;-74
2022/03/02 11:12:20;;;;;;;22.83;12.88;;;;;;;13.60;73.25;100710.31;5050359;28;20031;-75
2022/03/02 11:15:01;;;;;;;22.58;11.90;;;;;;;13.69;72.92;100707.63;5078464;28;20112;-74
2022/03/02 11:17:26;;;;;;;22.42;11.88;;;;;;;13.78;72.34;100713.31;5075777;28;20440;-74